Main page
METAR-TAF:

METAR-TAF

Airports :

Kassel Airport

Kassel, Germany

latitude: 51-24N, longitude: 009-23E, elevation: 277 m

Current weather observation

The report was made 42 minutes ago, at 14:20 UTC
Wind 5 kt from variable directions
Temperature 11°C
Humidity 37%
Pressure 1024 hPa
Visibility 10 km or more
no clouds below 1500 m and no cumulonimbus

METAR: EDVK 041420Z VRB05KT CAVOK 11/M03 Q1024

Time: 17:02 (15:02 UTC)

Forecast

The report was made 1 hour and 2 minutes ago, at 14:00 UTC
Forecast valid from 04 at 15 UTC to 04 at 24 UTC
Wind 4 kt from the East/Southeast
Visibility 10 km or more
no clouds below 1500 m and no cumulonimbus

TAF: EDVK 041400Z 0415/0424 11004KT CAVOK

Weather observations and forecasts of more than 4000 airports (METAR and TAF reports).

The available stations are represented by yellow and red dots on the map.

Hover mouse over dot to see the name of the station.

Then click to see weather observations and forecasts.

To change the map : click on the green buttons with a black cross to zoom in, on the green button with a dash to zoom out, or on the green arrows for adjacent maps.


METAR-TAF: